sensor_id;sensor_type;location;lat;lon;timestamp;temperature;humidity
79750;SHT31;69233;51.968;5.658;2023-07-29T00:00:43;21.5;67.0
79750;SHT31;69233;51.968;5.658;2023-07-29T00:03:13;21.5;67.2
79750;SHT31;69233;51.968;5.658;2023-07-29T00:05:44;21.5;67.1
79750;SHT31;69233;51.968;5.658;2023-07-29T00:08:14;21.5;66.9
79750;SHT31;69233;51.968;5.658;2023-07-29T00:10:44;21.4;67.1
79750;SHT31;69233;51.968;5.658;2023-07-29T00:13:13;21.4;67.2
79750;SHT31;69233;51.968;5.658;2023-07-29T00:15:42;21.4;66.9
79750;SHT31;69233;51.968;5.658;2023-07-29T00:18:12;21.4;67.3
79750;SHT31;69233;51.968;5.658;2023-07-29T00:20:43;21.3;66.9
79750;SHT31;69233;51.968;5.658;2023-07-29T00:23:13;21.3;67.2
79750;SHT31;69233;51.968;5.658;2023-07-29T00:25:42;21.3;67.0
79750;SHT31;69233;51.968;5.658;2023-07-29T00:28:12;21.2;67.1
79750;SHT31;69233;51.968;5.658;2023-07-29T00:30:44;21.2;67.2
79750;SHT31;69233;51.968;5.658;2023-07-29T00:33:13;21.2;67.3
79750;SHT31;69233;51.968;5.658;2023-07-29T00:35:43;21.2;67.0
79750;SHT31;69233;51.968;5.658;2023-07-29T00:38:13;21.1;67.0
79750;SHT31;69233;51.968;5.658;2023-07-29T00:40:43;21.1;67.0
79750;SHT31;69233;51.968;5.658;2023-07-29T00:43:12;21.1;67.5
79750;SHT31;69233;51.968;5.658;2023-07-29T00:45:43;21.0;67.5
79750;SHT31;69233;51.968;5.658;2023-07-29T00:48:14;21.0;67.5
79750;SHT31;69233;51.968;5.658;2023-07-29T00:50:44;21.0;67.6
79750;SHT31;69233;51.968;5.658;2023-07-29T00:53:15;21.0;67.8
79750;SHT31;69233;51.968;5.658;2023-07-29T00:55:45;21.0;67.9
79750;SHT31;69233;51.968;5.658;2023-07-29T00:58:15;20.9;68.2
79750;SHT31;69233;51.968;5.658;2023-07-29T01:00:44;20.9;68.4
79750;SHT31;69233;51.968;5.658;2023-07-29T01:03:14;20.9;68.6
79750;SHT31;69233;51.968;5.658;2023-07-29T01:05:54;20.9;68.9
79750;SHT31;69233;51.968;5.658;2023-07-29T01:08:33;20.9;69.1
79750;SHT31;69233;51.968;5.658;2023-07-29T01:11:12;20.9;69.1
79750;SHT31;69233;51.968;5.658;2023-07-29T01:13:52;20.9;68.9
79750;SHT31;69233;51.968;5.658;2023-07-29T01:16:28;21.0;68.8
79750;SHT31;69233;51.968;5.658;2023-07-29T01:19:07;21.0;68.9
79750;SHT31;69233;51.968;5.658;2023-07-29T01:21:43;21.0;69.2
79750;SHT31;69233;51.968;5.658;2023-07-29T01:24:13;21.0;69.3
79750;SHT31;69233;51.968;5.658;2023-07-29T01:26:42;21.0;69.8
79750;SHT31;69233;51.968;5.658;2023-07-29T01:29:12;21.0;70.1
79750;SHT31;69233;51.968;5.658;2023-07-29T01:31:44;21.0;70.0
79750;SHT31;69233;51.968;5.658;2023-07-29T01:34:20;21.0;70.4
79750;SHT31;69233;51.968;5.658;2023-07-29T01:36:54;21.0;70.7
79750;SHT31;69233;51.968;5.658;2023-07-29T01:39:29;21.1;70.7
79750;SHT31;69233;51.968;5.658;2023-07-29T01:42:02;21.1;70.5
79750;SHT31;69233;51.968;5.658;2023-07-29T01:44:32;21.1;70.6
79750;SHT31;69233;51.968;5.658;2023-07-29T01:47:02;21.2;70.8
79750;SHT31;69233;51.968;5.658;2023-07-29T01:49:31;21.2;70.5
79750;SHT31;69233;51.968;5.658;2023-07-29T01:52:01;21.2;70.7
79750;SHT31;69233;51.968;5.658;2023-07-29T01:54:31;21.3;70.5
79750;SHT31;69233;51.968;5.658;2023-07-29T01:57:00;21.3;70.5
79750;SHT31;69233;51.968;5.658;2023-07-29T01:59:30;21.3;70.4
79750;SHT31;69233;51.968;5.658;2023-07-29T02:01:59;21.3;70.3
79750;SHT31;69233;51.968;5.658;2023-07-29T02:04:28;21.4;70.2
79750;SHT31;69233;51.968;5.658;2023-07-29T02:06:58;21.4;69.9
79750;SHT31;69233;51.968;5.658;2023-07-29T02:09:28;21.4;70.0
79750;SHT31;69233;51.968;5.658;2023-07-29T02:11:59;21.4;69.9
79750;SHT31;69233;51.968;5.658;2023-07-29T02:14:28;21.4;70.5
79750;SHT31;69233;51.968;5.658;2023-07-29T02:16:58;21.4;70.1
79750;SHT31;69233;51.968;5.658;2023-07-29T02:19:27;21.4;70.2
79750;SHT31;69233;51.968;5.658;2023-07-29T02:21:57;21.4;70.5
79750;SHT31;69233;51.968;5.658;2023-07-29T02:24:26;21.4;70.5
79750;SHT31;69233;51.968;5.658;2023-07-29T02:26:56;21.4;70.8
79750;SHT31;69233;51.968;5.658;2023-07-29T02:29:26;21.4;70.6
79750;SHT31;69233;51.968;5.658;2023-07-29T02:31:55;21.5;70.6
79750;SHT31;69233;51.968;5.658;2023-07-29T02:34:25;21.5;70.8
79750;SHT31;69233;51.968;5.658;2023-07-29T02:36:54;21.5;70.9
79750;SHT31;69233;51.968;5.658;2023-07-29T02:39:24;21.5;70.3
79750;SHT31;69233;51.968;5.658;2023-07-29T02:41:53;21.5;70.1
79750;SHT31;69233;51.968;5.658;2023-07-29T02:44:23;21.5;69.9
79750;SHT31;69233;51.968;5.658;2023-07-29T02:46:53;21.5;69.9
79750;SHT31;69233;51.968;5.658;2023-07-29T02:49:23;21.5;69.7
79750;SHT31;69233;51.968;5.658;2023-07-29T02:51:52;21.5;69.6
79750;SHT31;69233;51.968;5.658;2023-07-29T02:54:22;21.5;69.3
79750;SHT31;69233;51.968;5.658;2023-07-29T02:56:51;21.5;68.6
79750;SHT31;69233;51.968;5.658;2023-07-29T02:59:21;21.5;68.7
79750;SHT31;69233;51.968;5.658;2023-07-29T03:01:50;21.5;69.0
79750;SHT31;69233;51.968;5.658;2023-07-29T03:04:20;21.5;68.7
79750;SHT31;69233;51.968;5.658;2023-07-29T03:06:51;21.5;68.7
79750;SHT31;69233;51.968;5.658;2023-07-29T03:09:21;21.4;68.6
79750;SHT31;69233;51.968;5.658;2023-07-29T03:11:50;21.4;68.7
79750;SHT31;69233;51.968;5.658;2023-07-29T03:14:22;21.4;68.6
79750;SHT31;69233;51.968;5.658;2023-07-29T03:16:51;21.4;68.2
79750;SHT31;69233;51.968;5.658;2023-07-29T03:19:21;21.4;68.2
79750;SHT31;69233;51.968;5.658;2023-07-29T03:21:51;21.4;68.2
79750;SHT31;69233;51.968;5.658;2023-07-29T03:24:20;21.3;68.1
79750;SHT31;69233;51.968;5.658;2023-07-29T03:26:50;21.3;68.1
79750;SHT31;69233;51.968;5.658;2023-07-29T03:29:19;21.3;68.1
79750;SHT31;69233;51.968;5.658;2023-07-29T03:31:49;21.3;68.3
79750;SHT31;69233;51.968;5.658;2023-07-29T03:34:18;21.2;68.2
79750;SHT31;69233;51.968;5.658;2023-07-29T03:36:48;21.2;68.2
79750;SHT31;69233;51.968;5.658;2023-07-29T03:39:18;21.2;67.8
79750;SHT31;69233;51.968;5.658;2023-07-29T03:41:48;21.2;68.1
79750;SHT31;69233;51.968;5.658;2023-07-29T03:44:18;21.2;68.3
79750;SHT31;69233;51.968;5.658;2023-07-29T03:46:47;21.1;68.4
79750;SHT31;69233;51.968;5.658;2023-07-29T03:49:17;21.1;68.5
79750;SHT31;69233;51.968;5.658;2023-07-29T03:51:46;21.1;68.4
79750;SHT31;69233;51.968;5.658;2023-07-29T03:54:16;21.1;68.2
79750;SHT31;69233;51.968;5.658;2023-07-29T03:56:47;21.1;67.5
79750;SHT31;69233;51.968;5.658;2023-07-29T03:59:17;21.0;68.0
79750;SHT31;69233;51.968;5.658;2023-07-29T04:01:47;21.0;68.1
79750;SHT31;69233;51.968;5.658;2023-07-29T04:04:16;21.0;68.2
79750;SHT31;69233;51.968;5.658;2023-07-29T04:06:46;21.0;67.9
79750;SHT31;69233;51.968;5.658;2023-07-29T04:09:15;21.0;67.5
79750;SHT31;69233;51.968;5.658;2023-07-29T04:11:45;20.9;67.8
79750;SHT31;69233;51.968;5.658;2023-07-29T04:14:15;20.9;66.7
79750;SHT31;69233;51.968;5.658;2023-07-29T04:16:44;20.9;66.8
79750;SHT31;69233;51.968;5.658;2023-07-29T04:19:16;20.9;66.6
79750;SHT31;69233;51.968;5.658;2023-07-29T04:21:46;20.8;67.1
79750;SHT31;69233;51.968;5.658;2023-07-29T04:24:20;20.8;66.8
79750;SHT31;69233;51.968;5.658;2023-07-29T04:26:50;20.8;66.8
79750;SHT31;69233;51.968;5.658;2023-07-29T04:29:20;20.8;67.1
79750;SHT31;69233;51.968;5.658;2023-07-29T04:31:50;20.7;67.2
79750;SHT31;69233;51.968;5.658;2023-07-29T04:34:20;20.7;67.3
79750;SHT31;69233;51.968;5.658;2023-07-29T04:36:49;20.7;67.6
79750;SHT31;69233;51.968;5.658;2023-07-29T04:39:19;20.7;67.6
79750;SHT31;69233;51.968;5.658;2023-07-29T04:41:48;20.7;67.9
79750;SHT31;69233;51.968;5.658;2023-07-29T04:44:18;20.7;67.9
79750;SHT31;69233;51.968;5.658;2023-07-29T04:46:48;20.6;67.8
79750;SHT31;69233;51.968;5.658;2023-07-29T04:49:18;20.6;68.1
79750;SHT31;69233;51.968;5.658;2023-07-29T04:51:47;20.6;67.8
79750;SHT31;69233;51.968;5.658;2023-07-29T04:54:17;20.6;68.3
79750;SHT31;69233;51.968;5.658;2023-07-29T04:56:48;20.6;67.4
79750;SHT31;69233;51.968;5.658;2023-07-29T04:59:17;20.6;67.8
79750;SHT31;69233;51.968;5.658;2023-07-29T05:01:47;20.6;68.3
79750;SHT31;69233;51.968;5.658;2023-07-29T05:04:16;20.6;68.4
79750;SHT31;69233;51.968;5.658;2023-07-29T05:06:46;20.6;68.0
79750;SHT31;69233;51.968;5.658;2023-07-29T05:09:16;20.6;67.1
79750;SHT31;69233;51.968;5.658;2023-07-29T05:11:47;20.6;67.2
79750;SHT31;69233;51.968;5.658;2023-07-29T05:14:17;20.6;67.2
79750;SHT31;69233;51.968;5.658;2023-07-29T05:16:47;20.6;67.2
79750;SHT31;69233;51.968;5.658;2023-07-29T05:19:17;20.6;68.1
79750;SHT31;69233;51.968;5.658;2023-07-29T05:21:47;20.6;66.7
79750;SHT31;69233;51.968;5.658;2023-07-29T05:24:16;20.6;66.7
79750;SHT31;69233;51.968;5.658;2023-07-29T05:26:46;20.6;67.4
79750;SHT31;69233;51.968;5.658;2023-07-29T05:29:15;20.6;67.5
79750;SHT31;69233;51.968;5.658;2023-07-29T05:31:45;20.6;67.4
79750;SHT31;69233;51.968;5.658;2023-07-29T05:34:14;20.6;67.6
79750;SHT31;69233;51.968;5.658;2023-07-29T05:36:43;20.6;67.2
79750;SHT31;69233;51.968;5.658;2023-07-29T05:39:13;20.6;67.3
79750;SHT31;69233;51.968;5.658;2023-07-29T05:41:42;20.6;67.9
79750;SHT31;69233;51.968;5.658;2023-07-29T05:44:13;20.6;68.3
79750;SHT31;69233;51.968;5.658;2023-07-29T05:46:42;20.6;68.4
79750;SHT31;69233;51.968;5.658;2023-07-29T05:49:12;20.6;68.8
79750;SHT31;69233;51.968;5.658;2023-07-29T05:51:43;20.6;68.6
79750;SHT31;69233;51.968;5.658;2023-07-29T05:54:13;20.7;68.6
79750;SHT31;69233;51.968;5.658;2023-07-29T05:56:43;20.7;67.5
79750;SHT31;69233;51.968;5.658;2023-07-29T05:59:14;20.7;67.7
79750;SHT31;69233;51.968;5.658;2023-07-29T06:01:44;20.7;67.9
79750;SHT31;69233;51.968;5.658;2023-07-29T06:04:13;20.8;67.9
79750;SHT31;69233;51.968;5.658;2023-07-29T06:06:43;20.8;67.7
79750;SHT31;69233;51.968;5.658;2023-07-29T06:09:12;20.8;68.0
79750;SHT31;69233;51.968;5.658;2023-07-29T06:11:42;20.8;67.6
79750;SHT31;69233;51.968;5.658;2023-07-29T06:14:13;20.9;67.6
79750;SHT31;69233;51.968;5.658;2023-07-29T06:16:42;20.9;67.6
79750;SHT31;69233;51.968;5.658;2023-07-29T06:19:12;20.9;68.0
79750;SHT31;69233;51.968;5.658;2023-07-29T06:21:42;21.0;67.5
79750;SHT31;69233;51.968;5.658;2023-07-29T06:24:11;21.0;68.0
79750;SHT31;69233;51.968;5.658;2023-07-29T06:26:41;21.0;67.5
79750;SHT31;69233;51.968;5.658;2023-07-29T06:29:10;21.1;66.4
79750;SHT31;69233;51.968;5.658;2023-07-29T06:31:40;21.1;67.5
79750;SHT31;69233;51.968;5.658;2023-07-29T06:34:09;21.1;67.1
79750;SHT31;69233;51.968;5.658;2023-07-29T06:36:40;21.2;67.0
79750;SHT31;69233;51.968;5.658;2023-07-29T06:39:09;21.2;67.4
79750;SHT31;69233;51.968;5.658;2023-07-29T06:41:38;21.2;66.7
79750;SHT31;69233;51.968;5.658;2023-07-29T06:44:08;21.3;67.0
79750;SHT31;69233;51.968;5.658;2023-07-29T06:46:38;21.3;66.2
79750;SHT31;69233;51.968;5.658;2023-07-29T06:49:09;21.3;68.0
79750;SHT31;69233;51.968;5.658;2023-07-29T06:51:38;21.4;67.0
79750;SHT31;69233;51.968;5.658;2023-07-29T06:54:10;21.4;67.6
79750;SHT31;69233;51.968;5.658;2023-07-29T06:56:41;21.5;66.7
79750;SHT31;69233;51.968;5.658;2023-07-29T06:59:11;21.5;65.3
79750;SHT31;69233;51.968;5.658;2023-07-29T07:01:40;21.6;66.0
79750;SHT31;69233;51.968;5.658;2023-07-29T07:04:10;21.6;66.7
79750;SHT31;69233;51.968;5.658;2023-07-29T07:06:39;21.6;66.7
79750;SHT31;69233;51.968;5.658;2023-07-29T07:09:09;21.7;67.2
79750;SHT31;69233;51.968;5.658;2023-07-29T07:11:39;21.8;68.3
79750;SHT31;69233;51.968;5.658;2023-07-29T07:14:08;21.8;66.5
79750;SHT31;69233;51.968;5.658;2023-07-29T07:16:38;21.9;66.2
79750;SHT31;69233;51.968;5.658;2023-07-29T07:19:10;22.0;66.1
79750;SHT31;69233;51.968;5.658;2023-07-29T07:21:40;22.1;66.0
79750;SHT31;69233;51.968;5.658;2023-07-29T07:24:09;22.1;65.4
79750;SHT31;69233;51.968;5.658;2023-07-29T07:26:38;22.2;65.6
79750;SHT31;69233;51.968;5.658;2023-07-29T07:29:08;22.3;65.6
79750;SHT31;69233;51.968;5.658;2023-07-29T07:31:37;22.3;65.8
79750;SHT31;69233;51.968;5.658;2023-07-29T07:34:07;22.4;65.5
79750;SHT31;69233;51.968;5.658;2023-07-29T07:36:37;22.4;65.1
79750;SHT31;69233;51.968;5.658;2023-07-29T07:39:06;22.5;64.4
79750;SHT31;69233;51.968;5.658;2023-07-29T07:41:36;22.5;63.7
79750;SHT31;69233;51.968;5.658;2023-07-29T07:44:05;22.5;65.0
79750;SHT31;69233;51.968;5.658;2023-07-29T07:46:35;22.6;64.6
79750;SHT31;69233;51.968;5.658;2023-07-29T07:49:04;22.6;65.2
79750;SHT31;69233;51.968;5.658;2023-07-29T07:51:34;22.7;64.6
79750;SHT31;69233;51.968;5.658;2023-07-29T07:54:03;22.7;63.9
79750;SHT31;69233;51.968;5.658;2023-07-29T07:56:32;22.7;63.2
79750;SHT31;69233;51.968;5.658;2023-07-29T07:59:04;22.8;63.3
79750;SHT31;69233;51.968;5.658;2023-07-29T08:01:36;22.8;63.5
79750;SHT31;69233;51.968;5.658;2023-07-29T08:04:07;22.8;64.2
79750;SHT31;69233;51.968;5.658;2023-07-29T08:06:36;22.8;64.3
79750;SHT31;69233;51.968;5.658;2023-07-29T08:09:06;22.9;63.5
79750;SHT31;69233;51.968;5.658;2023-07-29T08:11:36;22.9;63.6
79750;SHT31;69233;51.968;5.658;2023-07-29T08:14:07;23.0;64.7
79750;SHT31;69233;51.968;5.658;2023-07-29T08:16:36;23.0;63.9
79750;SHT31;69233;51.968;5.658;2023-07-29T08:19:06;23.0;64.0
79750;SHT31;69233;51.968;5.658;2023-07-29T08:21:37;23.1;62.9
79750;SHT31;69233;51.968;5.658;2023-07-29T08:24:07;23.1;62.9
79750;SHT31;69233;51.968;5.658;2023-07-29T08:26:36;23.1;64.0
79750;SHT31;69233;51.968;5.658;2023-07-29T08:29:06;23.1;63.5
79750;SHT31;69233;51.968;5.658;2023-07-29T08:31:35;23.2;63.9
79750;SHT31;69233;51.968;5.658;2023-07-29T08:34:05;23.2;64.2
79750;SHT31;69233;51.968;5.658;2023-07-29T08:36:34;23.2;63.0
79750;SHT31;69233;51.968;5.658;2023-07-29T08:39:04;23.3;63.4
79750;SHT31;69233;51.968;5.658;2023-07-29T08:41:40;23.3;62.9
79750;SHT31;69233;51.968;5.658;2023-07-29T08:44:15;23.4;62.6
79750;SHT31;69233;51.968;5.658;2023-07-29T08:46:46;23.4;62.5
79750;SHT31;69233;51.968;5.658;2023-07-29T08:49:18;23.4;61.4
79750;SHT31;69233;51.968;5.658;2023-07-29T08:51:53;23.5;63.3
79750;SHT31;69233;51.968;5.658;2023-07-29T08:54:24;23.5;63.2
79750;SHT31;69233;51.968;5.658;2023-07-29T08:56:54;23.6;61.9
79750;SHT31;69233;51.968;5.658;2023-07-29T08:59:25;23.6;61.5
79750;SHT31;69233;51.968;5.658;2023-07-29T09:01:56;23.6;61.4
79750;SHT31;69233;51.968;5.658;2023-07-29T09:04:28;23.6;61.5
79750;SHT31;69233;51.968;5.658;2023-07-29T09:06:59;23.6;59.5
79750;SHT31;69233;51.968;5.658;2023-07-29T09:09:29;23.6;60.4
79750;SHT31;69233;51.968;5.658;2023-07-29T09:12:01;23.6;61.0
79750;SHT31;69233;51.968;5.658;2023-07-29T09:14:31;23.6;59.7
79750;SHT31;69233;51.968;5.658;2023-07-29T09:17:00;23.6;59.5
79750;SHT31;69233;51.968;5.658;2023-07-29T09:19:33;23.6;60.6
79750;SHT31;69233;51.968;5.658;2023-07-29T09:22:03;23.6;60.4
79750;SHT31;69233;51.968;5.658;2023-07-29T09:24:33;23.6;60.8
79750;SHT31;69233;51.968;5.658;2023-07-29T09:27:05;23.6;60.5
79750;SHT31;69233;51.968;5.658;2023-07-29T09:29:36;23.7;61.0
79750;SHT31;69233;51.968;5.658;2023-07-29T09:32:22;23.7;61.6
79750;SHT31;69233;51.968;5.658;2023-07-29T09:34:53;23.8;62.1
79750;SHT31;69233;51.968;5.658;2023-07-29T09:37:23;24.0;62.8
79750;SHT31;69233;51.968;5.658;2023-07-29T09:39:53;24.2;62.5
79750;SHT31;69233;51.968;5.658;2023-07-29T09:42:23;24.4;62.4
79750;SHT31;69233;51.968;5.658;2023-07-29T09:44:52;24.7;59.9
79750;SHT31;69233;51.968;5.658;2023-07-29T09:47:24;25.0;58.7
79750;SHT31;69233;51.968;5.658;2023-07-29T09:49:54;25.2;57.1
79750;SHT31;69233;51.968;5.658;2023-07-29T09:52:23;25.3;56.2
79750;SHT31;69233;51.968;5.658;2023-07-29T09:54:54;25.5;54.8
79750;SHT31;69233;51.968;5.658;2023-07-29T09:57:24;25.6;56.9
79750;SHT31;69233;51.968;5.658;2023-07-29T09:59:56;25.7;55.7
79750;SHT31;69233;51.968;5.658;2023-07-29T10:02:26;25.8;56.2
79750;SHT31;69233;51.968;5.658;2023-07-29T10:05:01;25.9;53.4
79750;SHT31;69233;51.968;5.658;2023-07-29T10:07:31;26.0;53.9
79750;SHT31;69233;51.968;5.658;2023-07-29T10:10:04;26.1;53.9
79750;SHT31;69233;51.968;5.658;2023-07-29T10:12:35;26.1;55.3
79750;SHT31;69233;51.968;5.658;2023-07-29T10:15:06;26.2;53.4
79750;SHT31;69233;51.968;5.658;2023-07-29T10:17:37;26.3;57.0
79750;SHT31;69233;51.968;5.658;2023-07-29T10:20:09;26.4;54.2
79750;SHT31;69233;51.968;5.658;2023-07-29T10:22:41;26.6;53.5
79750;SHT31;69233;51.968;5.658;2023-07-29T10:25:16;26.7;52.2
79750;SHT31;69233;51.968;5.658;2023-07-29T10:27:48;26.8;52.1
79750;SHT31;69233;51.968;5.658;2023-07-29T10:30:18;26.8;50.3
79750;SHT31;69233;51.968;5.658;2023-07-29T10:32:49;26.9;51.3
79750;SHT31;69233;51.968;5.658;2023-07-29T10:35:19;26.9;50.0
79750;SHT31;69233;51.968;5.658;2023-07-29T10:37:49;26.8;51.1
79750;SHT31;69233;51.968;5.658;2023-07-29T10:40:20;26.8;50.5
79750;SHT31;69233;51.968;5.658;2023-07-29T10:43:10;26.7;51.2
79750;SHT31;69233;51.968;5.658;2023-07-29T10:45:39;26.6;51.9
79750;SHT31;69233;51.968;5.658;2023-07-29T10:48:13;26.6;52.2
79750;SHT31;69233;51.968;5.658;2023-07-29T10:50:49;26.5;53.1
79750;SHT31;69233;51.968;5.658;2023-07-29T10:53:21;26.5;52.8
79750;SHT31;69233;51.968;5.658;2023-07-29T10:55:55;26.5;52.0
79750;SHT31;69233;51.968;5.658;2023-07-29T10:58:25;26.4;51.8
79750;SHT31;69233;51.968;5.658;2023-07-29T11:00:55;26.3;53.1
79750;SHT31;69233;51.968;5.658;2023-07-29T11:03:24;26.3;54.0
79750;SHT31;69233;51.968;5.658;2023-07-29T11:06:04;26.2;53.5
79750;SHT31;69233;51.968;5.658;2023-07-29T11:08:34;26.1;54.4
79750;SHT31;69233;51.968;5.658;2023-07-29T11:11:06;26.1;54.2
79750;SHT31;69233;51.968;5.658;2023-07-29T11:13:37;26.0;54.2
79750;SHT31;69233;51.968;5.658;2023-07-29T11:16:10;26.0;54.1
79750;SHT31;69233;51.968;5.658;2023-07-29T11:18:49;26.0;54.2
79750;SHT31;69233;51.968;5.658;2023-07-29T11:21:18;25.9;55.1
79750;SHT31;69233;51.968;5.658;2023-07-29T11:23:48;25.9;54.7
79750;SHT31;69233;51.968;5.658;2023-07-29T11:26:18;25.8;54.6
79750;SHT31;69233;51.968;5.658;2023-07-29T11:28:47;25.8;54.3
79750;SHT31;69233;51.968;5.658;2023-07-29T11:31:18;25.7;56.8
79750;SHT31;69233;51.968;5.658;2023-07-29T11:33:48;25.6;57.6
79750;SHT31;69233;51.968;5.658;2023-07-29T11:36:20;25.5;57.5
79750;SHT31;69233;51.968;5.658;2023-07-29T11:38:53;25.4;58.0
79750;SHT31;69233;51.968;5.658;2023-07-29T11:41:23;25.2;58.2
79750;SHT31;69233;51.968;5.658;2023-07-29T11:43:52;25.0;59.0
79750;SHT31;69233;51.968;5.658;2023-07-29T11:46:25;24.8;59.0
79750;SHT31;69233;51.968;5.658;2023-07-29T11:48:55;24.6;60.3
79750;SHT31;69233;51.968;5.658;2023-07-29T11:51:25;24.5;60.6
79750;SHT31;69233;51.968;5.658;2023-07-29T11:53:55;24.4;60.9
79750;SHT31;69233;51.968;5.658;2023-07-29T11:56:25;24.2;62.2
79750;SHT31;69233;51.968;5.658;2023-07-29T11:58:56;24.1;62.8
79750;SHT31;69233;51.968;5.658;2023-07-29T12:01:28;24.0;63.7
79750;SHT31;69233;51.968;5.658;2023-07-29T12:03:58;23.8;64.9
79750;SHT31;69233;51.968;5.658;2023-07-29T12:06:30;23.7;65.8
79750;SHT31;69233;51.968;5.658;2023-07-29T12:09:00;23.5;67.6
79750;SHT31;69233;51.968;5.658;2023-07-29T12:11:32;23.5;69.2
79750;SHT31;69233;51.968;5.658;2023-07-29T12:14:02;23.4;69.9
79750;SHT31;69233;51.968;5.658;2023-07-29T12:16:31;23.3;71.5
79750;SHT31;69233;51.968;5.658;2023-07-29T12:19:08;23.3;70.3
79750;SHT31;69233;51.968;5.658;2023-07-29T12:21:37;23.3;70.8
79750;SHT31;69233;51.968;5.658;2023-07-29T12:24:07;23.3;69.5
79750;SHT31;69233;51.968;5.658;2023-07-29T12:26:39;23.4;69.7
79750;SHT31;69233;51.968;5.658;2023-07-29T12:29:13;23.4;70.0
79750;SHT31;69233;51.968;5.658;2023-07-29T12:31:43;23.4;70.1
79750;SHT31;69233;51.968;5.658;2023-07-29T12:34:19;23.4;70.8
79750;SHT31;69233;51.968;5.658;2023-07-29T12:36:51;23.5;69.6
79750;SHT31;69233;51.968;5.658;2023-07-29T12:39:24;23.5;71.0
79750;SHT31;69233;51.968;5.658;2023-07-29T12:41:54;23.6;73.8
79750;SHT31;69233;51.968;5.658;2023-07-29T12:44:28;23.8;70.9
79750;SHT31;69233;51.968;5.658;2023-07-29T12:46:59;24.0;70.6
79750;SHT31;69233;51.968;5.658;2023-07-29T12:49:28;24.2;67.3
79750;SHT31;69233;51.968;5.658;2023-07-29T12:51:58;24.4;67.9
79750;SHT31;69233;51.968;5.658;2023-07-29T12:54:30;24.5;67.9
79750;SHT31;69233;51.968;5.658;2023-07-29T12:57:00;24.7;66.6
79750;SHT31;69233;51.968;5.658;2023-07-29T12:59:30;24.9;66.6
79750;SHT31;69233;51.968;5.658;2023-07-29T13:01:59;25.0;65.1
79750;SHT31;69233;51.968;5.658;2023-07-29T13:04:29;25.1;66.7
79750;SHT31;69233;51.968;5.658;2023-07-29T13:06:58;25.3;64.0
79750;SHT31;69233;51.968;5.658;2023-07-29T13:09:28;25.4;63.5
79750;SHT31;69233;51.968;5.658;2023-07-29T13:11:58;25.4;62.1
79750;SHT31;69233;51.968;5.658;2023-07-29T13:14:27;25.5;63.7
79750;SHT31;69233;51.968;5.658;2023-07-29T13:16:57;25.5;62.8
79750;SHT31;69233;51.968;5.658;2023-07-29T13:19:26;25.6;64.0
79750;SHT31;69233;51.968;5.658;2023-07-29T13:21:56;25.6;61.3
79750;SHT31;69233;51.968;5.658;2023-07-29T13:24:25;25.6;62.5
79750;SHT31;69233;51.968;5.658;2023-07-29T13:26:55;25.6;61.2
79750;SHT31;69233;51.968;5.658;2023-07-29T13:29:24;25.5;62.5
79750;SHT31;69233;51.968;5.658;2023-07-29T13:31:54;25.5;61.8
79750;SHT31;69233;51.968;5.658;2023-07-29T13:34:24;25.4;63.0
79750;SHT31;69233;51.968;5.658;2023-07-29T13:36:53;25.4;66.9
79750;SHT31;69233;51.968;5.658;2023-07-29T13:39:23;25.4;65.3
79750;SHT31;69233;51.968;5.658;2023-07-29T13:41:52;25.7;72.4
79750;SHT31;69233;51.968;5.658;2023-07-29T13:44:24;26.3;68.8
79750;SHT31;69233;51.968;5.658;2023-07-29T13:46:53;27.0;59.2
79750;SHT31;69233;51.968;5.658;2023-07-29T13:49:23;27.4;55.9
79750;SHT31;69233;51.968;5.658;2023-07-29T13:51:53;27.6;56.3
79750;SHT31;69233;51.968;5.658;2023-07-29T13:54:22;27.6;54.4
79750;SHT31;69233;51.968;5.658;2023-07-29T13:56:52;27.6;55.8
79750;SHT31;69233;51.968;5.658;2023-07-29T13:59:22;27.7;58.5
79750;SHT31;69233;51.968;5.658;2023-07-29T14:01:51;27.9;58.4
79750;SHT31;69233;51.968;5.658;2023-07-29T14:04:20;28.1;53.2
79750;SHT31;69233;51.968;5.658;2023-07-29T14:06:50;28.3;52.9
79750;SHT31;69233;51.968;5.658;2023-07-29T14:09:20;28.3;52.5
79750;SHT31;69233;51.968;5.658;2023-07-29T14:11:49;28.3;52.7
79750;SHT31;69233;51.968;5.658;2023-07-29T14:14:18;28.3;54.9
79750;SHT31;69233;51.968;5.658;2023-07-29T14:16:48;28.3;55.1
79750;SHT31;69233;51.968;5.658;2023-07-29T14:19:18;28.4;52.9
79750;SHT31;69233;51.968;5.658;2023-07-29T14:21:48;28.4;55.6
79750;SHT31;69233;51.968;5.658;2023-07-29T14:24:19;28.4;51.2
79750;SHT31;69233;51.968;5.658;2023-07-29T14:26:50;28.4;52.1
79750;SHT31;69233;51.968;5.658;2023-07-29T14:29:19;28.4;52.5
79750;SHT31;69233;51.968;5.658;2023-07-29T14:31:49;28.4;53.4
79750;SHT31;69233;51.968;5.658;2023-07-29T14:34:18;28.3;57.0
79750;SHT31;69233;51.968;5.658;2023-07-29T14:36:48;28.3;61.2
79750;SHT31;69233;51.968;5.658;2023-07-29T14:39:17;28.5;54.3
79750;SHT31;69233;51.968;5.658;2023-07-29T14:41:47;28.6;51.4
79750;SHT31;69233;51.968;5.658;2023-07-29T14:44:16;28.6;53.6
79750;SHT31;69233;51.968;5.658;2023-07-29T14:46:46;28.7;55.7
79750;SHT31;69233;51.968;5.658;2023-07-29T14:49:15;28.8;54.8
79750;SHT31;69233;51.968;5.658;2023-07-29T14:51:45;29.0;51.1
79750;SHT31;69233;51.968;5.658;2023-07-29T14:54:14;29.1;51.2
79750;SHT31;69233;51.968;5.658;2023-07-29T14:56:44;29.2;54.7
79750;SHT31;69233;51.968;5.658;2023-07-29T14:59:13;29.3;55.2
79750;SHT31;69233;51.968;5.658;2023-07-29T15:01:43;29.6;55.5
79750;SHT31;69233;51.968;5.658;2023-07-29T15:04:13;30.0;53.8
79750;SHT31;69233;51.968;5.658;2023-07-29T15:06:43;30.6;51.0
79750;SHT31;69233;51.968;5.658;2023-07-29T15:09:13;31.1;47.4
79750;SHT31;69233;51.968;5.658;2023-07-29T15:11:44;31.5;44.1
79750;SHT31;69233;51.968;5.658;2023-07-29T15:14:14;31.7;44.5
79750;SHT31;69233;51.968;5.658;2023-07-29T15:16:43;31.9;42.4
79750;SHT31;69233;51.968;5.658;2023-07-29T15:19:13;31.9;41.7
79750;SHT31;69233;51.968;5.658;2023-07-29T15:21:43;31.9;41.2
79750;SHT31;69233;51.968;5.658;2023-07-29T15:24:13;31.8;41.5
79750;SHT31;69233;51.968;5.658;2023-07-29T15:26:42;31.6;42.4
79750;SHT31;69233;51.968;5.658;2023-07-29T15:29:12;31.4;42.2
79750;SHT31;69233;51.968;5.658;2023-07-29T15:31:42;31.2;42.3
79750;SHT31;69233;51.968;5.658;2023-07-29T15:34:11;30.8;42.6
79750;SHT31;69233;51.968;5.658;2023-07-29T15:36:41;30.4;42.7
79750;SHT31;69233;51.968;5.658;2023-07-29T15:39:10;30.0;42.9
79750;SHT31;69233;51.968;5.658;2023-07-29T15:41:41;29.7;45.8
79750;SHT31;69233;51.968;5.658;2023-07-29T15:44:11;29.4;45.3
79750;SHT31;69233;51.968;5.658;2023-07-29T15:46:42;29.2;48.8
79750;SHT31;69233;51.968;5.658;2023-07-29T15:49:12;29.1;46.3
79750;SHT31;69233;51.968;5.658;2023-07-29T15:51:43;29.0;48.3
79750;SHT31;69233;51.968;5.658;2023-07-29T15:54:13;28.9;48.7
79750;SHT31;69233;51.968;5.658;2023-07-29T15:56:45;28.9;46.1
79750;SHT31;69233;51.968;5.658;2023-07-29T15:59:14;28.8;48.5
79750;SHT31;69233;51.968;5.658;2023-07-29T16:01:44;28.7;47.0
79750;SHT31;69233;51.968;5.658;2023-07-29T16:04:13;28.5;47.1
79750;SHT31;69233;51.968;5.658;2023-07-29T16:06:43;28.4;49.4
79750;SHT31;69233;51.968;5.658;2023-07-29T16:09:12;28.4;48.1
79750;SHT31;69233;51.968;5.658;2023-07-29T16:11:42;28.4;48.3
79750;SHT31;69233;51.968;5.658;2023-07-29T16:14:12;28.4;48.8
79750;SHT31;69233;51.968;5.658;2023-07-29T16:16:42;28.4;49.7
79750;SHT31;69233;51.968;5.658;2023-07-29T16:19:12;28.4;48.9
79750;SHT31;69233;51.968;5.658;2023-07-29T16:21:44;28.3;47.5